sensor_id;sensor_type;location;lat;lon;timestamp;P1;durP1;ratioP1;P2;durP2;ratioP2
6095;SDS011;25081;42.698;23.298;2023-11-21T00:01:00;74.42;;;38.92;;
6095;SDS011;25081;42.698;23.298;2023-11-21T00:03:12;72.97;;;38.45;;
6095;SDS011;25081;42.698;23.298;2023-11-21T00:05:23;72.10;;;37.40;;
6095;SDS011;25081;42.698;23.298;2023-11-21T00:07:33;74.45;;;39.08;;
6095;SDS011;25081;42.698;23.298;2023-11-21T00:09:44;77.03;;;35.63;;
6095;SDS011;25081;42.698;23.298;2023-11-21T00:11:55;83.12;;;37.93;;
6095;SDS011;25081;42.698;23.298;2023-11-21T00:14:06;75.78;;;36.23;;
6095;SDS011;25081;42.698;23.298;2023-11-21T00:16:17;66.75;;;36.08;;
6095;SDS011;25081;42.698;23.298;2023-11-21T00:18:28;73.65;;;37.08;;
6095;SDS011;25081;42.698;23.298;2023-11-21T00:20:38;68.83;;;36.08;;
6095;SDS011;25081;42.698;23.298;2023-11-21T00:22:49;71.67;;;38.05;;
6095;SDS011;25081;42.698;23.298;2023-11-21T00:25:00;64.17;;;36.65;;
6095;SDS011;25081;42.698;23.298;2023-11-21T00:27:10;73.12;;;37.55;;
6095;SDS011;25081;42.698;23.298;2023-11-21T00:29:22;84.60;;;40.70;;
6095;SDS011;25081;42.698;23.298;2023-11-21T00:31:32;77.32;;;38.20;;
6095;SDS011;25081;42.698;23.298;2023-11-21T00:33:43;77.82;;;37.13;;
6095;SDS011;25081;42.698;23.298;2023-11-21T00:35:53;75.60;;;38.02;;
6095;SDS011;25081;42.698;23.298;2023-11-21T00:38:04;74.07;;;38.88;;
6095;SDS011;25081;42.698;23.298;2023-11-21T00:40:15;70.40;;;37.05;;
6095;SDS011;25081;42.698;23.298;2023-11-21T00:42:27;64.72;;;35.28;;
6095;SDS011;25081;42.698;23.298;2023-11-21T00:44:38;60.58;;;32.33;;
6095;SDS011;25081;42.698;23.298;2023-11-21T00:46:49;51.53;;;29.67;;
6095;SDS011;25081;42.698;23.298;2023-11-21T00:48:59;52.08;;;30.20;;
6095;SDS011;25081;42.698;23.298;2023-11-21T00:51:10;51.88;;;30.30;;
6095;SDS011;25081;42.698;23.298;2023-11-21T00:53:21;60.98;;;30.90;;
6095;SDS011;25081;42.698;23.298;2023-11-21T00:55:32;55.88;;;28.17;;
6095;SDS011;25081;42.698;23.298;2023-11-21T00:57:42;54.98;;;30.90;;
6095;SDS011;25081;42.698;23.298;2023-11-21T00:59:53;55.65;;;31.42;;
6095;SDS011;25081;42.698;23.298;2023-11-21T01:02:04;51.90;;;29.75;;
6095;SDS011;25081;42.698;23.298;2023-11-21T01:04:15;60.05;;;30.77;;
6095;SDS011;25081;42.698;23.298;2023-11-21T01:06:25;52.15;;;28.75;;
6095;SDS011;25081;42.698;23.298;2023-11-21T01:08:36;60.17;;;30.12;;
6095;SDS011;25081;42.698;23.298;2023-11-21T01:10:47;54.75;;;28.38;;
6095;SDS011;25081;42.698;23.298;2023-11-21T01:12:58;55.50;;;31.97;;
6095;SDS011;25081;42.698;23.298;2023-11-21T01:15:09;56.90;;;30.12;;
6095;SDS011;25081;42.698;23.298;2023-11-21T01:17:21;59.77;;;32.15;;
6095;SDS011;25081;42.698;23.298;2023-11-21T01:19:31;58.38;;;32.33;;
6095;SDS011;25081;42.698;23.298;2023-11-21T01:21:42;59.50;;;31.65;;
6095;SDS011;25081;42.698;23.298;2023-11-21T01:23:52;53.73;;;31.02;;
6095;SDS011;25081;42.698;23.298;2023-11-21T01:26:04;63.95;;;32.63;;
6095;SDS011;25081;42.698;23.298;2023-11-21T01:28:15;60.55;;;32.40;;
6095;SDS011;25081;42.698;23.298;2023-11-21T01:30:25;55.33;;;32.25;;
6095;SDS011;25081;42.698;23.298;2023-11-21T01:32:36;55.73;;;32.08;;
6095;SDS011;25081;42.698;23.298;2023-11-21T01:34:47;56.23;;;31.33;;
6095;SDS011;25081;42.698;23.298;2023-11-21T01:36:57;55.38;;;29.77;;
6095;SDS011;25081;42.698;23.298;2023-11-21T01:39:08;61.00;;;35.05;;
6095;SDS011;25081;42.698;23.298;2023-11-21T01:41:19;56.13;;;31.75;;
6095;SDS011;25081;42.698;23.298;2023-11-21T01:43:30;60.10;;;33.08;;
6095;SDS011;25081;42.698;23.298;2023-11-21T01:45:40;62.90;;;34.40;;
6095;SDS011;25081;42.698;23.298;2023-11-21T01:47:51;60.73;;;31.90;;
6095;SDS011;25081;42.698;23.298;2023-11-21T01:50:02;72.87;;;33.55;;
6095;SDS011;25081;42.698;23.298;2023-11-21T01:52:13;61.95;;;33.40;;
6095;SDS011;25081;42.698;23.298;2023-11-21T01:54:23;49.15;;;30.32;;
6095;SDS011;25081;42.698;23.298;2023-11-21T01:56:34;49.85;;;29.00;;
6095;SDS011;25081;42.698;23.298;2023-11-21T01:58:44;58.05;;;31.73;;
6095;SDS011;25081;42.698;23.298;2023-11-21T02:00:55;57.45;;;31.75;;
6095;SDS011;25081;42.698;23.298;2023-11-21T02:03:06;62.90;;;30.50;;
6095;SDS011;25081;42.698;23.298;2023-11-21T02:05:17;60.38;;;31.23;;
6095;SDS011;25081;42.698;23.298;2023-11-21T02:07:27;46.05;;;23.77;;
6095;SDS011;25081;42.698;23.298;2023-11-21T02:09:37;50.35;;;28.83;;
6095;SDS011;25081;42.698;23.298;2023-11-21T02:11:49;51.90;;;27.58;;
6095;SDS011;25081;42.698;23.298;2023-11-21T02:13:59;48.48;;;26.82;;
6095;SDS011;25081;42.698;23.298;2023-11-21T02:16:10;40.15;;;23.18;;
6095;SDS011;25081;42.698;23.298;2023-11-21T02:18:21;39.65;;;25.48;;
6095;SDS011;25081;42.698;23.298;2023-11-21T02:20:32;45.30;;;26.70;;
6095;SDS011;25081;42.698;23.298;2023-11-21T02:22:43;45.30;;;23.70;;
6095;SDS011;25081;42.698;23.298;2023-11-21T02:24:54;46.45;;;24.30;;
6095;SDS011;25081;42.698;23.298;2023-11-21T02:27:04;44.05;;;25.17;;
6095;SDS011;25081;42.698;23.298;2023-11-21T02:29:15;43.05;;;24.55;;
6095;SDS011;25081;42.698;23.298;2023-11-21T02:31:26;45.00;;;26.57;;
6095;SDS011;25081;42.698;23.298;2023-11-21T02:33:37;44.15;;;25.02;;
6095;SDS011;25081;42.698;23.298;2023-11-21T02:35:47;38.33;;;22.42;;
6095;SDS011;25081;42.698;23.298;2023-11-21T02:37:58;40.43;;;21.75;;
6095;SDS011;25081;42.698;23.298;2023-11-21T02:40:10;38.67;;;21.40;;
6095;SDS011;25081;42.698;23.298;2023-11-21T02:42:21;38.30;;;24.23;;
6095;SDS011;25081;42.698;23.298;2023-11-21T02:44:32;41.60;;;24.45;;
6095;SDS011;25081;42.698;23.298;2023-11-21T02:46:43;38.63;;;21.97;;
6095;SDS011;25081;42.698;23.298;2023-11-21T02:48:54;38.78;;;22.15;;
6095;SDS011;25081;42.698;23.298;2023-11-21T02:51:05;40.10;;;23.42;;
6095;SDS011;25081;42.698;23.298;2023-11-21T02:53:16;47.00;;;22.87;;
6095;SDS011;25081;42.698;23.298;2023-11-21T02:55:26;45.92;;;24.52;;
6095;SDS011;25081;42.698;23.298;2023-11-21T02:57:37;36.98;;;22.65;;
6095;SDS011;25081;42.698;23.298;2023-11-21T02:59:48;47.90;;;24.47;;
6095;SDS011;25081;42.698;23.298;2023-11-21T03:01:59;49.50;;;23.22;;
6095;SDS011;25081;42.698;23.298;2023-11-21T03:04:10;41.92;;;21.30;;
6095;SDS011;25081;42.698;23.298;2023-11-21T03:06:21;38.23;;;20.40;;
6095;SDS011;25081;42.698;23.298;2023-11-21T03:08:31;37.30;;;20.97;;
6095;SDS011;25081;42.698;23.298;2023-11-21T03:10:42;51.60;;;22.48;;
6095;SDS011;25081;42.698;23.298;2023-11-21T03:12:53;40.33;;;22.22;;
6095;SDS011;25081;42.698;23.298;2023-11-21T03:15:05;42.45;;;21.15;;
6095;SDS011;25081;42.698;23.298;2023-11-21T03:17:16;34.78;;;21.15;;
6095;SDS011;25081;42.698;23.298;2023-11-21T03:19:27;33.08;;;20.30;;
6095;SDS011;25081;42.698;23.298;2023-11-21T03:21:37;42.90;;;21.07;;
6095;SDS011;25081;42.698;23.298;2023-11-21T03:23:48;32.70;;;18.95;;
6095;SDS011;25081;42.698;23.298;2023-11-21T03:25:59;31.93;;;19.73;;
6095;SDS011;25081;42.698;23.298;2023-11-21T03:28:10;35.45;;;19.75;;
6095;SDS011;25081;42.698;23.298;2023-11-21T03:30:21;29.52;;;16.90;;
6095;SDS011;25081;42.698;23.298;2023-11-21T03:32:31;31.50;;;19.37;;
6095;SDS011;25081;42.698;23.298;2023-11-21T03:34:54;36.55;;;18.60;;
6095;SDS011;25081;42.698;23.298;2023-11-21T03:37:05;43.87;;;20.08;;
6095;SDS011;25081;42.698;23.298;2023-11-21T03:39:15;33.30;;;19.23;;
6095;SDS011;25081;42.698;23.298;2023-11-21T03:41:26;33.48;;;20.35;;
6095;SDS011;25081;42.698;23.298;2023-11-21T03:43:36;38.00;;;21.68;;
6095;SDS011;25081;42.698;23.298;2023-11-21T03:45:47;40.58;;;24.10;;
6095;SDS011;25081;42.698;23.298;2023-11-21T03:47:57;43.08;;;23.98;;
6095;SDS011;25081;42.698;23.298;2023-11-21T03:50:09;30.62;;;20.92;;
6095;SDS011;25081;42.698;23.298;2023-11-21T03:52:19;34.73;;;20.02;;
6095;SDS011;25081;42.698;23.298;2023-11-21T03:54:30;34.33;;;19.12;;
6095;SDS011;25081;42.698;23.298;2023-11-21T03:56:40;37.40;;;20.43;;
6095;SDS011;25081;42.698;23.298;2023-11-21T03:58:51;41.80;;;22.80;;
6095;SDS011;25081;42.698;23.298;2023-11-21T04:01:01;31.23;;;20.20;;
6095;SDS011;25081;42.698;23.298;2023-11-21T04:03:12;35.40;;;21.73;;
6095;SDS011;25081;42.698;23.298;2023-11-21T04:05:22;36.58;;;21.55;;
6095;SDS011;25081;42.698;23.298;2023-11-21T04:07:33;47.45;;;21.93;;
6095;SDS011;25081;42.698;23.298;2023-11-21T04:09:43;33.67;;;19.85;;
6095;SDS011;25081;42.698;23.298;2023-11-21T04:11:54;37.88;;;19.80;;
6095;SDS011;25081;42.698;23.298;2023-11-21T04:14:04;36.40;;;18.85;;
6095;SDS011;25081;42.698;23.298;2023-11-21T04:16:15;30.52;;;18.27;;
6095;SDS011;25081;42.698;23.298;2023-11-21T04:18:25;32.58;;;16.73;;
6095;SDS011;25081;42.698;23.298;2023-11-21T04:20:36;31.52;;;19.10;;
6095;SDS011;25081;42.698;23.298;2023-11-21T04:22:47;23.45;;;14.13;;
6095;SDS011;25081;42.698;23.298;2023-11-21T04:24:57;28.92;;;18.70;;
6095;SDS011;25081;42.698;23.298;2023-11-21T04:27:08;28.07;;;15.15;;
6095;SDS011;25081;42.698;23.298;2023-11-21T04:29:18;23.20;;;13.45;;
6095;SDS011;25081;42.698;23.298;2023-11-21T04:31:29;28.65;;;13.50;;
6095;SDS011;25081;42.698;23.298;2023-11-21T04:33:40;30.55;;;15.50;;
6095;SDS011;25081;42.698;23.298;2023-11-21T04:35:51;24.10;;;12.63;;
6095;SDS011;25081;42.698;23.298;2023-11-21T04:38:01;23.98;;;13.72;;
6095;SDS011;25081;42.698;23.298;2023-11-21T04:40:12;28.23;;;15.18;;
6095;SDS011;25081;42.698;23.298;2023-11-21T04:42:23;25.20;;;12.70;;
6095;SDS011;25081;42.698;23.298;2023-11-21T04:44:33;22.87;;;13.88;;
6095;SDS011;25081;42.698;23.298;2023-11-21T04:46:44;23.38;;;14.70;;
6095;SDS011;25081;42.698;23.298;2023-11-21T04:48:54;24.35;;;14.33;;
6095;SDS011;25081;42.698;23.298;2023-11-21T04:51:05;23.27;;;14.23;;
6095;SDS011;25081;42.698;23.298;2023-11-21T04:53:16;27.37;;;15.53;;
6095;SDS011;25081;42.698;23.298;2023-11-21T04:55:27;25.10;;;13.78;;
6095;SDS011;25081;42.698;23.298;2023-11-21T04:57:37;26.60;;;14.53;;
6095;SDS011;25081;42.698;23.298;2023-11-21T04:59:49;30.77;;;16.00;;
6095;SDS011;25081;42.698;23.298;2023-11-21T05:02:00;26.57;;;16.10;;
6095;SDS011;25081;42.698;23.298;2023-11-21T05:04:11;28.17;;;15.20;;
6095;SDS011;25081;42.698;23.298;2023-11-21T05:06:21;31.33;;;16.05;;
6095;SDS011;25081;42.698;23.298;2023-11-21T05:08:32;37.25;;;18.50;;
6095;SDS011;25081;42.698;23.298;2023-11-21T05:10:43;25.10;;;15.75;;
6095;SDS011;25081;42.698;23.298;2023-11-21T05:12:53;27.32;;;17.23;;
6095;SDS011;25081;42.698;23.298;2023-11-21T05:15:05;35.75;;;17.45;;
6095;SDS011;25081;42.698;23.298;2023-11-21T05:17:17;30.40;;;16.10;;
6095;SDS011;25081;42.698;23.298;2023-11-21T05:19:27;32.60;;;16.00;;
6095;SDS011;25081;42.698;23.298;2023-11-21T05:21:38;29.82;;;15.72;;
6095;SDS011;25081;42.698;23.298;2023-11-21T05:23:48;25.35;;;16.12;;
6095;SDS011;25081;42.698;23.298;2023-11-21T05:25:59;29.80;;;16.42;;
6095;SDS011;25081;42.698;23.298;2023-11-21T05:28:10;29.12;;;15.85;;
6095;SDS011;25081;42.698;23.298;2023-11-21T05:30:20;31.75;;;16.77;;
6095;SDS011;25081;42.698;23.298;2023-11-21T05:32:31;26.50;;;16.62;;
6095;SDS011;25081;42.698;23.298;2023-11-21T05:34:42;31.55;;;17.70;;
6095;SDS011;25081;42.698;23.298;2023-11-21T05:36:52;35.40;;;18.15;;
6095;SDS011;25081;42.698;23.298;2023-11-21T05:39:03;29.72;;;15.68;;
6095;SDS011;25081;42.698;23.298;2023-11-21T05:41:14;26.65;;;17.35;;
6095;SDS011;25081;42.698;23.298;2023-11-21T05:43:25;31.65;;;17.92;;
6095;SDS011;25081;42.698;23.298;2023-11-21T05:45:36;32.35;;;18.62;;
6095;SDS011;25081;42.698;23.298;2023-11-21T05:47:46;34.15;;;18.32;;
6095;SDS011;25081;42.698;23.298;2023-11-21T05:49:57;35.83;;;16.12;;
6095;SDS011;25081;42.698;23.298;2023-11-21T05:52:07;28.40;;;17.48;;
6095;SDS011;25081;42.698;23.298;2023-11-21T05:54:18;28.85;;;17.05;;
6095;SDS011;25081;42.698;23.298;2023-11-21T05:56:28;31.90;;;17.65;;
6095;SDS011;25081;42.698;23.298;2023-11-21T05:58:39;29.55;;;15.85;;
6095;SDS011;25081;42.698;23.298;2023-11-21T06:00:49;31.85;;;17.55;;
6095;SDS011;25081;42.698;23.298;2023-11-21T06:03:00;31.25;;;17.98;;
6095;SDS011;25081;42.698;23.298;2023-11-21T06:05:11;43.20;;;18.80;;
6095;SDS011;25081;42.698;23.298;2023-11-21T06:07:21;28.95;;;16.62;;
6095;SDS011;25081;42.698;23.298;2023-11-21T06:09:32;28.17;;;16.45;;
6095;SDS011;25081;42.698;23.298;2023-11-21T06:11:42;28.65;;;18.40;;
6095;SDS011;25081;42.698;23.298;2023-11-21T06:13:53;42.20;;;19.05;;
6095;SDS011;25081;42.698;23.298;2023-11-21T06:16:04;29.50;;;19.12;;
6095;SDS011;25081;42.698;23.298;2023-11-21T06:18:16;29.60;;;18.70;;
6095;SDS011;25081;42.698;23.298;2023-11-21T06:20:27;35.92;;;18.75;;
6095;SDS011;25081;42.698;23.298;2023-11-21T06:22:38;29.40;;;18.45;;
6095;SDS011;25081;42.698;23.298;2023-11-21T06:24:48;43.73;;;21.05;;
6095;SDS011;25081;42.698;23.298;2023-11-21T06:26:59;41.33;;;21.27;;
6095;SDS011;25081;42.698;23.298;2023-11-21T06:29:09;39.08;;;22.30;;
6095;SDS011;25081;42.698;23.298;2023-11-21T06:31:20;38.15;;;22.93;;
6095;SDS011;25081;42.698;23.298;2023-11-21T06:33:30;35.25;;;20.10;;
6095;SDS011;25081;42.698;23.298;2023-11-21T06:35:41;40.90;;;20.80;;
6095;SDS011;25081;42.698;23.298;2023-11-21T06:37:51;33.78;;;20.15;;
6095;SDS011;25081;42.698;23.298;2023-11-21T06:40:02;36.83;;;20.48;;
6095;SDS011;25081;42.698;23.298;2023-11-21T06:42:13;35.00;;;21.55;;
6095;SDS011;25081;42.698;23.298;2023-11-21T06:44:24;34.45;;;20.25;;
6095;SDS011;25081;42.698;23.298;2023-11-21T06:46:34;36.77;;;22.75;;
6095;SDS011;25081;42.698;23.298;2023-11-21T06:48:45;33.30;;;18.55;;
6095;SDS011;25081;42.698;23.298;2023-11-21T06:50:55;44.50;;;22.93;;
6095;SDS011;25081;42.698;23.298;2023-11-21T06:53:06;37.60;;;22.17;;
6095;SDS011;25081;42.698;23.298;2023-11-21T06:55:16;36.45;;;20.37;;
6095;SDS011;25081;42.698;23.298;2023-11-21T06:57:27;34.13;;;21.60;;
6095;SDS011;25081;42.698;23.298;2023-11-21T06:59:38;40.43;;;21.42;;
6095;SDS011;25081;42.698;23.298;2023-11-21T07:01:48;33.90;;;21.55;;
6095;SDS011;25081;42.698;23.298;2023-11-21T07:03:59;37.73;;;20.70;;
6095;SDS011;25081;42.698;23.298;2023-11-21T07:06:09;36.83;;;20.08;;
6095;SDS011;25081;42.698;23.298;2023-11-21T07:08:20;47.43;;;20.60;;
6095;SDS011;25081;42.698;23.298;2023-11-21T07:10:30;34.83;;;22.40;;
6095;SDS011;25081;42.698;23.298;2023-11-21T07:12:41;36.63;;;22.33;;
6095;SDS011;25081;42.698;23.298;2023-11-21T07:14:51;40.43;;;23.40;;
6095;SDS011;25081;42.698;23.298;2023-11-21T07:17:02;38.30;;;23.77;;
6095;SDS011;25081;42.698;23.298;2023-11-21T07:19:13;38.97;;;22.63;;
6095;SDS011;25081;42.698;23.298;2023-11-21T07:21:23;37.33;;;23.97;;
6095;SDS011;25081;42.698;23.298;2023-11-21T07:23:34;35.90;;;24.75;;
6095;SDS011;25081;42.698;23.298;2023-11-21T07:25:45;41.45;;;24.12;;
6095;SDS011;25081;42.698;23.298;2023-11-21T07:27:55;36.70;;;22.93;;
6095;SDS011;25081;42.698;23.298;2023-11-21T07:30:07;39.10;;;26.00;;
6095;SDS011;25081;42.698;23.298;2023-11-21T07:32:18;45.23;;;24.57;;
6095;SDS011;25081;42.698;23.298;2023-11-21T07:34:29;38.87;;;23.20;;
6095;SDS011;25081;42.698;23.298;2023-11-21T07:36:39;34.03;;;22.23;;
6095;SDS011;25081;42.698;23.298;2023-11-21T07:38:50;42.97;;;24.80;;
6095;SDS011;25081;42.698;23.298;2023-11-21T07:41:00;38.47;;;23.73;;
6095;SDS011;25081;42.698;23.298;2023-11-21T07:43:11;41.10;;;24.90;;
6095;SDS011;25081;42.698;23.298;2023-11-21T07:45:21;39.87;;;23.47;;
6095;SDS011;25081;42.698;23.298;2023-11-21T07:47:32;34.20;;;22.90;;
6095;SDS011;25081;42.698;23.298;2023-11-21T07:49:42;37.60;;;22.63;;
6095;SDS011;25081;42.698;23.298;2023-11-21T07:51:53;37.77;;;23.90;;
6095;SDS011;25081;42.698;23.298;2023-11-21T07:54:03;37.40;;;22.37;;
6095;SDS011;25081;42.698;23.298;2023-11-21T07:56:14;33.10;;;22.67;;
6095;SDS011;25081;42.698;23.298;2023-11-21T07:58:25;33.83;;;20.27;;
6095;SDS011;25081;42.698;23.298;2023-11-21T08:00:35;32.50;;;21.43;;
6095;SDS011;25081;42.698;23.298;2023-11-21T08:02:46;34.33;;;22.43;;
6095;SDS011;25081;42.698;23.298;2023-11-21T08:04:56;36.50;;;22.97;;
6095;SDS011;25081;42.698;23.298;2023-11-21T08:07:07;42.17;;;23.60;;
6095;SDS011;25081;42.698;23.298;2023-11-21T08:09:17;38.60;;;23.73;;
6095;SDS011;25081;42.698;23.298;2023-11-21T08:11:28;38.70;;;25.10;;
6095;SDS011;25081;42.698;23.298;2023-11-21T08:13:38;38.10;;;25.30;;
6095;SDS011;25081;42.698;23.298;2023-11-21T08:15:49;46.33;;;24.73;;
6095;SDS011;25081;42.698;23.298;2023-11-21T08:18:00;40.33;;;25.13;;
6095;SDS011;25081;42.698;23.298;2023-11-21T08:20:11;38.40;;;23.40;;
6095;SDS011;25081;42.698;23.298;2023-11-21T08:22:22;34.13;;;21.87;;
6095;SDS011;25081;42.698;23.298;2023-11-21T08:24:33;33.40;;;22.03;;
6095;SDS011;25081;42.698;23.298;2023-11-21T08:26:43;32.13;;;19.80;;
6095;SDS011;25081;42.698;23.298;2023-11-21T08:28:54;35.23;;;21.00;;
6095;SDS011;25081;42.698;23.298;2023-11-21T08:31:05;25.40;;;18.43;;
6095;SDS011;25081;42.698;23.298;2023-11-21T08:33:16;32.87;;;19.90;;
6095;SDS011;25081;42.698;23.298;2023-11-21T08:35:26;29.27;;;19.20;;
6095;SDS011;25081;42.698;23.298;2023-11-21T08:37:37;33.57;;;21.73;;
6095;SDS011;25081;42.698;23.298;2023-11-21T08:39:47;32.17;;;19.60;;
6095;SDS011;25081;42.698;23.298;2023-11-21T08:41:58;34.30;;;20.47;;
6095;SDS011;25081;42.698;23.298;2023-11-21T08:44:08;32.53;;;21.43;;
6095;SDS011;25081;42.698;23.298;2023-11-21T08:46:19;35.73;;;21.80;;
6095;SDS011;25081;42.698;23.298;2023-11-21T08:48:29;30.90;;;19.63;;
6095;SDS011;25081;42.698;23.298;2023-11-21T08:50:40;35.93;;;21.97;;
6095;SDS011;25081;42.698;23.298;2023-11-21T08:52:50;32.70;;;23.00;;
6095;SDS011;25081;42.698;23.298;2023-11-21T08:55:01;31.57;;;22.40;;
6095;SDS011;25081;42.698;23.298;2023-11-21T08:57:12;33.80;;;23.30;;
6095;SDS011;25081;42.698;23.298;2023-11-21T08:59:23;35.53;;;24.17;;
6095;SDS011;25081;42.698;23.298;2023-11-21T09:01:33;40.60;;;23.13;;
6095;SDS011;25081;42.698;23.298;2023-11-21T09:03:44;38.07;;;23.53;;
6095;SDS011;25081;42.698;23.298;2023-11-21T09:05:54;39.77;;;24.73;;
6095;SDS011;25081;42.698;23.298;2023-11-21T09:08:05;35.63;;;23.20;;
6095;SDS011;25081;42.698;23.298;2023-11-21T09:10:15;34.77;;;22.70;;
6095;SDS011;25081;42.698;23.298;2023-11-21T09:12:26;38.67;;;24.43;;
6095;SDS011;25081;42.698;23.298;2023-11-21T09:14:37;42.00;;;25.97;;
6095;SDS011;25081;42.698;23.298;2023-11-21T09:16:47;38.83;;;24.93;;
6095;SDS011;25081;42.698;23.298;2023-11-21T09:18:58;37.77;;;25.53;;
6095;SDS011;25081;42.698;23.298;2023-11-21T09:21:09;38.37;;;26.13;;
6095;SDS011;25081;42.698;23.298;2023-11-21T09:23:19;35.90;;;25.90;;
6095;SDS011;25081;42.698;23.298;2023-11-21T09:25:30;37.10;;;25.10;;
6095;SDS011;25081;42.698;23.298;2023-11-21T09:27:40;37.50;;;26.77;;
6095;SDS011;25081;42.698;23.298;2023-11-21T09:29:51;40.47;;;24.03;;
6095;SDS011;25081;42.698;23.298;2023-11-21T09:32:01;41.10;;;25.87;;
6095;SDS011;25081;42.698;23.298;2023-11-21T09:34:13;42.40;;;25.50;;
6095;SDS011;25081;42.698;23.298;2023-11-21T09:36:23;44.13;;;27.00;;
6095;SDS011;25081;42.698;23.298;2023-11-21T09:38:34;40.23;;;22.90;;
6095;SDS011;25081;42.698;23.298;2023-11-21T09:40:45;50.33;;;25.57;;
6095;SDS011;25081;42.698;23.298;2023-11-21T09:42:56;41.03;;;25.57;;
6095;SDS011;25081;42.698;23.298;2023-11-21T09:45:08;38.40;;;24.80;;
6095;SDS011;25081;42.698;23.298;2023-11-21T09:47:18;37.00;;;24.10;;
6095;SDS011;25081;42.698;23.298;2023-11-21T09:49:28;37.00;;;23.70;;
6095;SDS011;25081;42.698;23.298;2023-11-21T09:51:39;36.40;;;26.10;;
6095;SDS011;25081;42.698;23.298;2023-11-21T09:53:50;37.30;;;24.07;;
6095;SDS011;25081;42.698;23.298;2023-11-21T09:56:01;37.30;;;22.80;;
6095;SDS011;25081;42.698;23.298;2023-11-21T09:58:12;37.53;;;21.27;;
6095;SDS011;25081;42.698;23.298;2023-11-21T10:00:23;34.53;;;23.70;;
6095;SDS011;25081;42.698;23.298;2023-11-21T10:02:33;39.27;;;26.00;;
6095;SDS011;25081;42.698;23.298;2023-11-21T10:04:44;38.07;;;25.43;;
6095;SDS011;25081;42.698;23.298;2023-11-21T10:06:54;38.50;;;25.80;;
6095;SDS011;25081;42.698;23.298;2023-11-21T10:09:05;48.47;;;24.97;;
6095;SDS011;25081;42.698;23.298;2023-11-21T10:11:16;34.13;;;25.37;;
6095;SDS011;25081;42.698;23.298;2023-11-21T10:13:27;40.33;;;24.00;;
6095;SDS011;25081;42.698;23.298;2023-11-21T10:15:38;33.30;;;21.53;;
6095;SDS011;25081;42.698;23.298;2023-11-21T10:17:49;37.87;;;23.03;;
6095;SDS011;25081;42.698;23.298;2023-11-21T10:19:59;40.80;;;26.20;;
6095;SDS011;25081;42.698;23.298;2023-11-21T10:22:09;35.57;;;25.80;;
6095;SDS011;25081;42.698;23.298;2023-11-21T10:24:20;44.00;;;26.10;;
6095;SDS011;25081;42.698;23.298;2023-11-21T10:26:30;41.70;;;26.13;;
6095;SDS011;25081;42.698;23.298;2023-11-21T10:28:41;40.50;;;27.43;;
6095;SDS011;25081;42.698;23.298;2023-11-21T10:30:52;43.33;;;26.90;;
6095;SDS011;25081;42.698;23.298;2023-11-21T10:33:03;44.50;;;26.63;;
6095;SDS011;25081;42.698;23.298;2023-11-21T10:35:13;48.50;;;26.70;;
6095;SDS011;25081;42.698;23.298;2023-11-21T10:37:24;37.13;;;25.57;;
6095;SDS011;25081;42.698;23.298;2023-11-21T10:39:35;43.97;;;26.90;;
6095;SDS011;25081;42.698;23.298;2023-11-21T10:41:46;38.17;;;25.10;;
6095;SDS011;25081;42.698;23.298;2023-11-21T10:43:56;34.07;;;24.00;;
6095;SDS011;25081;42.698;23.298;2023-11-21T10:46:07;31.97;;;21.80;;
6095;SDS011;25081;42.698;23.298;2023-11-21T10:48:17;38.03;;;24.20;;
6095;SDS011;25081;42.698;23.298;2023-11-21T10:50:28;38.70;;;23.60;;
6095;SDS011;25081;42.698;23.298;2023-11-21T10:52:38;37.37;;;23.53;;
6095;SDS011;25081;42.698;23.298;2023-11-21T10:54:49;32.53;;;22.63;;
6095;SDS011;25081;42.698;23.298;2023-11-21T10:57:00;34.00;;;19.40;;
6095;SDS011;25081;42.698;23.298;2023-11-21T10:59:11;31.93;;;21.57;;
6095;SDS011;25081;42.698;23.298;2023-11-21T11:01:22;29.70;;;18.67;;
6095;SDS011;25081;42.698;23.298;2023-11-21T11:03:33;29.27;;;18.57;;
6095;SDS011;25081;42.698;23.298;2023-11-21T11:05:43;33.67;;;19.10;;
6095;SDS011;25081;42.698;23.298;2023-11-21T11:07:58;25.93;;;17.60;;
6095;SDS011;25081;42.698;23.298;2023-11-21T11:10:11;31.63;;;19.53;;
6095;SDS011;25081;42.698;23.298;2023-11-21T11:12:23;30.63;;;18.17;;
6095;SDS011;25081;42.698;23.298;2023-11-21T11:14:33;31.97;;;18.70;;
6095;SDS011;25081;42.698;23.298;2023-11-21T11:16:43;29.10;;;17.90;;
6095;SDS011;25081;42.698;23.298;2023-11-21T11:18:54;28.67;;;18.03;;
6095;SDS011;25081;42.698;23.298;2023-11-21T11:21:09;27.00;;;17.80;;
6095;SDS011;25081;42.698;23.298;2023-11-21T11:23:24;31.37;;;17.57;;
6095;SDS011;25081;42.698;23.298;2023-11-21T11:25:55;30.17;;;19.50;;
6095;SDS011;25081;42.698;23.298;2023-11-21T11:28:07;30.90;;;18.50;;
6095;SDS011;25081;42.698;23.298;2023-11-21T11:30:20;28.27;;;20.07;;
6095;SDS011;25081;42.698;23.298;2023-11-21T11:32:32;27.50;;;18.87;;
6095;SDS011;25081;42.698;23.298;2023-11-21T11:34:44;34.10;;;20.43;;
6095;SDS011;25081;42.698;23.298;2023-11-21T11:36:57;31.33;;;20.73;;
6095;SDS011;25081;42.698;23.298;2023-11-21T11:41:39;30.53;;;18.63;;
6095;SDS011;25081;42.698;23.298;2023-11-21T11:43:49;24.17;;;18.67;;
6095;SDS011;25081;42.698;23.298;2023-11-21T11:46:01;32.07;;;18.17;;
6095;SDS011;25081;42.698;23.298;2023-11-21T11:48:11;21.13;;;13.90;;
6095;SDS011;25081;42.698;23.298;2023-11-21T11:50:23;25.47;;;16.70;;
6095;SDS011;25081;42.698;23.298;2023-11-21T11:52:37;22.40;;;14.40;;
6095;SDS011;25081;42.698;23.298;2023-11-21T11:54:49;22.87;;;14.13;;
6095;SDS011;25081;42.698;23.298;2023-11-21T11:57:00;27.07;;;17.13;;
6095;SDS011;25081;42.698;23.298;2023-11-21T11:59:10;24.03;;;15.53;;
6095;SDS011;25081;42.698;23.298;2023-11-21T12:01:21;25.47;;;15.23;;
6095;SDS011;25081;42.698;23.298;2023-11-21T12:03:31;30.40;;;15.93;;
6095;SDS011;25081;42.698;23.298;2023-11-21T12:05:42;31.07;;;17.20;;
6095;SDS011;25081;42.698;23.298;2023-11-21T12:07:53;28.27;;;17.37;;
6095;SDS011;25081;42.698;23.298;2023-11-21T12:10:04;32.80;;;19.67;;
6095;SDS011;25081;42.698;23.298;2023-11-21T12:12:15;41.03;;;20.50;;
6095;SDS011;25081;42.698;23.298;2023-11-21T12:14:26;32.70;;;19.97;;
6095;SDS011;25081;42.698;23.298;2023-11-21T12:16:36;36.07;;;21.70;;
6095;SDS011;25081;42.698;23.298;2023-11-21T12:18:47;33.73;;;21.63;;
6095;SDS011;25081;42.698;23.298;2023-11-21T12:20:57;41.73;;;21.80;;
6095;SDS011;25081;42.698;23.298;2023-11-21T12:23:08;31.30;;;19.97;;
6095;SDS011;25081;42.698;23.298;2023-11-21T12:25:19;28.93;;;18.33;;
6095;SDS011;25081;42.698;23.298;2023-11-21T12:27:30;34.43;;;19.40;;
6095;SDS011;25081;42.698;23.298;2023-11-21T12:29:41;31.20;;;19.10;;
6095;SDS011;25081;42.698;23.298;2023-11-21T12:31:51;39.10;;;21.30;;
6095;SDS011;25081;42.698;23.298;2023-11-21T12:34:02;31.47;;;18.93;;
6095;SDS011;25081;42.698;23.298;2023-11-21T12:36:13;28.03;;;18.07;;
6095;SDS011;25081;42.698;23.298;2023-11-21T12:38:23;31.73;;;21.10;;
6095;SDS011;25081;42.698;23.298;2023-11-21T12:40:34;28.50;;;18.63;;
6095;SDS011;25081;42.698;23.298;2023-11-21T12:42:45;29.23;;;19.67;;
6095;SDS011;25081;42.698;23.298;2023-11-21T12:45:07;31.80;;;19.60;;
6095;SDS011;25081;42.698;23.298;2023-11-21T12:47:23;29.27;;;19.27;;